Time;durP1;ratioP1;P1;durP2;ratioP2;P2;SDS_P1;SDS_P2;PMS_P1;PMS_P2;Temp;Humidity;BMP_temperature;BMP_pressure;BME280_temperature;BME280_humidity;BME280_pressure;Samples;Min_cycle;Max_cycle;Signal;HPM_P1;HPM_P2
2022/05/08 00:00:18;;;;;;;50.90;28.20;;;;;;;11.14;67.77;101211.24;1756617;81;21569;-69
2022/05/08 00:02:50;;;;;;;61.28;30.08;;;;;;;11.15;67.86;101208.08;1756328;81;21547;-69
2022/05/08 00:05:15;;;;;;;47.77;26.17;;;;;;;11.11;67.97;101206.22;1789228;80;20979;-69
2022/05/08 00:07:41;;;;;;;58.95;29.75;;;;;;;11.15;68.07;101204.92;1789188;80;21081;-69
2022/05/08 00:10:07;;;;;;;59.48;28.95;;;;;;;11.16;68.12;101203.91;1789345;80;20971;-69
2022/05/08 00:12:34;;;;;;;65.95;33.25;;;;;;;11.21;68.22;101205.63;1789400;79;21508;-69
2022/05/08 00:15:00;;;;;;;62.05;31.62;;;;;;;11.27;68.30;101209.50;1789351;80;21053;-70
2022/05/08 00:17:25;;;;;;;51.58;26.85;;;;;;;11.31;68.38;101210.37;1789193;80;20915;-69
2022/05/08 00:19:53;;;;;;;48.60;27.20;;;;;;;11.34;68.49;101216.74;1789525;80;20999;-69
2022/05/08 00:22:19;;;;;;;48.38;26.25;;;;;;;11.38;68.56;101218.11;1789323;79;21062;-69
2022/05/08 00:24:45;;;;;;;59.18;29.12;;;;;;;11.43;68.62;101213.13;1789308;80;21004;-69
2022/05/08 00:27:11;;;;;;;51.08;27.80;;;;;;;11.45;68.70;101213.83;1789385;80;21003;-69
2022/05/08 00:29:37;;;;;;;69.97;32.83;;;;;;;11.44;68.76;101208.14;1789433;80;20979;-69
2022/05/08 00:32:03;;;;;;;65.40;33.02;;;;;;;11.44;68.82;101203.28;1756481;81;21101;-69
2022/05/08 00:34:29;;;;;;;46.83;27.30;;;;;;;11.48;68.92;101204.66;1789495;80;20994;-69
2022/05/08 00:36:55;;;;;;;47.20;27.05;;;;;;;11.47;68.94;101192.29;1756553;81;21190;-69
2022/05/08 00:39:22;;;;;;;51.10;26.75;;;;;;;11.45;69.03;101205.81;1756443;81;20907;-69
2022/05/08 00:41:48;;;;;;;47.60;25.77;;;;;;;11.48;69.12;101202.83;1789488;79;21070;-70
2022/05/08 00:44:14;;;;;;;49.05;26.82;;;;;;;11.54;69.15;101201.35;1789246;78;20995;-70
2022/05/08 00:46:41;;;;;;;52.17;26.00;;;;;;;11.55;69.22;101205.71;1789249;79;21046;-69
2022/05/08 00:49:07;;;;;;;49.90;25.02;;;;;;;11.53;69.27;101201.88;1789460;80;21096;-69
2022/05/08 00:51:33;;;;;;;47.40;26.50;;;;;;;11.52;69.35;101197.52;1790409;79;21046;-69
2022/05/08 00:54:01;;;;;;;49.58;26.33;;;;;;;11.51;69.40;101201.18;1797959;79;21042;-69
2022/05/08 00:56:27;;;;;;;52.83;27.60;;;;;;;11.53;69.47;101205.88;1798254;79;21535;-70
2022/05/08 00:58:54;;;;;;;46.10;24.90;;;;;;;11.59;69.53;101202.23;1798586;79;20979;-69
2022/05/08 01:01:20;;;;;;;43.58;23.83;;;;;;;11.63;69.54;101210.27;1760157;81;21234;-69
2022/05/08 01:03:47;;;;;;;54.42;28.75;;;;;;;11.65;69.58;101214.45;1760130;81;21038;-69
2022/05/08 01:06:14;;;;;;;52.38;25.92;;;;;;;11.69;69.64;101209.64;1760318;81;21043;-69
2022/05/08 01:08:44;;;;;;;52.05;27.40;;;;;;;11.68;69.68;101203.45;1759971;81;21030;-69
2022/05/08 01:11:10;;;;;;;53.85;27.95;;;;;;;11.73;69.71;101207.03;1760430;81;21487;-69
2022/05/08 01:13:37;;;;;;;49.85;29.77;;;;;;;11.74;69.75;101207.38;1759522;81;21566;-69
2022/05/08 01:16:09;;;;;;;52.65;29.72;;;;;;;11.77;69.78;101207.06;1760171;81;21014;-69
2022/05/08 01:18:35;;;;;;;53.10;28.85;;;;;;;11.81;69.79;101211.09;1760078;81;21554;-69
2022/05/08 01:21:02;;;;;;;57.83;31.77;;;;;;;11.78;69.80;101208.75;1760103;81;21078;-69
2022/05/08 01:23:28;;;;;;;55.83;29.12;;;;;;;11.74;69.84;101204.70;1760367;81;21386;-69
2022/05/08 01:25:55;;;;;;;62.85;32.03;;;;;;;11.73;69.88;101205.70;1760304;81;21024;-69
2022/05/08 01:28:22;;;;;;;54.65;31.00;;;;;;;11.72;69.95;101209.35;1760253;81;21058;-69
2022/05/08 01:30:52;;;;;;;59.80;34.18;;;;;;;11.72;69.99;101195.99;1760028;81;21581;-69
2022/05/08 01:33:18;;;;;;;52.73;29.75;;;;;;;11.73;70.02;101203.02;1760489;81;21573;-69
2022/05/08 01:35:44;;;;;;;56.60;31.35;;;;;;;11.75;70.06;101201.05;1760311;81;21550;-69
2022/05/08 01:38:13;;;;;;;56.75;28.32;;;;;;;11.76;70.13;101202.70;1759996;81;21112;-69
2022/05/08 01:40:39;;;;;;;49.80;27.10;;;;;;;11.78;70.18;101200.73;1760293;81;21589;-69
2022/05/08 01:43:05;;;;;;;52.13;29.25;;;;;;;11.76;70.25;101197.36;1760037;81;20999;-69
2022/05/08 01:45:32;;;;;;;50.33;28.32;;;;;;;11.71;70.31;101197.02;1760189;81;21003;-69
2022/05/08 01:50:42;;;;;;;55.63;29.40;;;;;;;11.73;70.49;101204.36;1760361;81;21038;-69
2022/05/08 01:53:08;;;;;;;56.18;30.15;;;;;;;11.70;70.56;101205.98;1763029;81;20907;-69
2022/05/08 01:55:35;;;;;;;57.98;32.03;;;;;;;11.69;70.64;101204.30;1764696;81;21006;-69
2022/05/08 01:58:01;;;;;;;52.38;31.48;;;;;;;11.70;70.71;101207.31;1764865;81;21018;-69
2022/05/08 02:00:28;;;;;;;58.68;31.07;;;;;;;11.72;70.75;101201.34;1764690;81;21066;-69
2022/05/08 02:02:54;;;;;;;63.55;31.23;;;;;;;11.72;70.80;101200.00;1764908;81;21137;-69
2022/05/08 02:05:20;;;;;;;58.95;32.08;;;;;;;11.70;70.87;101205.98;1764841;81;20910;-69
2022/05/08 02:07:47;;;;;;;51.20;29.50;;;;;;;11.68;70.91;101209.32;1765109;81;21058;-69
2022/05/08 02:10:14;;;;;;;56.08;31.25;;;;;;;11.65;71.00;101206.45;1764406;81;21026;-69
2022/05/08 02:12:41;;;;;;;56.20;31.07;;;;;;;11.61;71.05;101202.41;1764826;81;21034;-69
2022/05/08 02:15:08;;;;;;;56.30;31.48;;;;;;;11.59;71.10;101203.56;1764835;81;21078;-69
2022/05/08 02:17:35;;;;;;;60.38;31.77;;;;;;;11.54;71.18;101205.36;1764800;81;20986;-69
2022/05/08 02:20:01;;;;;;;52.62;30.40;;;;;;;11.45;71.21;101208.98;1764515;81;21534;-69
2022/05/08 02:22:27;;;;;;;56.55;30.65;;;;;;;11.36;71.29;101206.77;1764762;81;21046;-69
2022/05/08 02:24:53;;;;;;;51.75;29.55;;;;;;;11.30;71.37;101207.36;1765027;81;20930;-69
2022/05/08 02:27:20;;;;;;;53.35;29.70;;;;;;;11.27;71.45;101204.16;1764732;81;21064;-69
2022/05/08 02:29:49;;;;;;;56.50;33.05;;;;;;;11.23;71.48;101206.30;1764909;81;21523;-69
2022/05/08 02:32:15;;;;;;;;;;;;;;;11.18;71.54;101205.94;1767467;81;21003;-69
2022/05/08 02:34:42;;;;;;;53.92;31.45;;;;;;;11.11;71.59;101202.21;1764781;81;20220;-69
2022/05/08 02:37:08;;;;;;;54.63;30.00;;;;;;;11.06;71.66;101209.83;1764911;81;21034;-69
2022/05/08 02:39:34;;;;;;;43.90;28.73;;;;;;;10.99;71.72;101211.42;1764416;81;21149;-69
2022/05/08 02:42:00;;;;;;;50.98;28.62;;;;;;;10.93;71.78;101214.71;1764863;81;21514;-69
2022/05/08 02:44:26;;;;;;;45.98;28.17;;;;;;;10.90;71.83;101215.02;1764819;81;21644;-69
2022/05/08 02:46:52;;;;;;;51.15;28.60;;;;;;;10.87;71.87;101220.67;1764627;80;20962;-69
2022/05/08 02:49:18;;;;;;;46.55;26.93;;;;;;;10.86;71.95;101220.31;1764655;81;21077;-69
2022/05/08 02:51:44;;;;;;;51.37;28.00;;;;;;;10.81;72.02;101210.58;1764598;81;21530;-69
2022/05/08 02:54:10;;;;;;;53.85;29.92;;;;;;;10.79;72.08;101208.56;1764362;80;21519;-69
2022/05/08 02:59:20;;;;;;;46.65;27.37;;;;;;;10.68;72.20;101212.78;1764898;81;21515;-69
2022/05/08 03:01:46;;;;;;;50.30;27.40;;;;;;;10.62;72.31;101226.73;1745730;81;21693;-69
2022/05/08 03:04:12;;;;;;;47.53;29.55;;;;;;;10.58;72.37;101220.86;1713509;82;21886;-69
2022/05/08 03:06:38;;;;;;;50.90;28.52;;;;;;;10.52;72.44;101230.27;1704156;83;21534;-68
2022/05/08 03:09:04;;;;;;;49.77;27.40;;;;;;;10.48;72.51;101231.55;1703883;84;21072;-68
2022/05/08 03:11:32;;;;;;;39.70;24.75;;;;;;;10.49;72.58;101234.58;1704081;84;21022;-68
2022/05/08 03:13:58;;;;;;;43.15;24.18;;;;;;;10.51;72.66;101223.77;1704471;84;21129;-69
2022/05/08 03:16:27;;;;;;;38.45;23.40;;;;;;;10.50;72.71;101226.09;1703550;84;21062;-69
2022/05/08 03:18:55;;;;;;;43.87;26.05;;;;;;;10.52;72.82;101226.77;1703133;83;21128;-69
2022/05/08 03:21:22;;;;;;;47.65;26.95;;;;;;;10.56;72.86;101229.97;1704397;82;21042;-69
2022/05/08 03:23:48;;;;;;;43.10;26.48;;;;;;;10.57;72.95;101238.33;1704004;84;21529;-69
2022/05/08 03:26:15;;;;;;;40.40;26.02;;;;;;;10.60;73.01;101242.87;1704400;84;21707;-69
2022/05/08 03:28:43;;;;;;;34.63;20.65;;;;;;;10.63;73.10;101237.23;1704479;84;21156;-69
2022/05/08 03:31:09;;;;;;;32.67;21.00;;;;;;;10.66;73.16;101230.78;1704111;84;21617;-69
2022/05/08 03:33:36;;;;;;;40.43;24.95;;;;;;;10.73;73.23;101231.86;1704538;84;21030;-69
2022/05/08 03:36:03;;;;;;;42.40;25.50;;;;;;;10.80;73.26;101236.94;1704755;84;21089;-69
2022/05/08 03:38:30;;;;;;;45.28;25.85;;;;;;;10.78;73.30;101233.56;1704913;84;21122;-69
2022/05/08 03:40:56;;;;;;;39.67;23.25;;;;;;;10.78;73.39;101232.23;1704760;84;21483;-68
2022/05/08 03:43:23;;;;;;;37.73;24.47;;;;;;;10.81;73.49;101230.09;1704505;84;22330;-69
2022/05/08 03:45:49;;;;;;;38.40;22.48;;;;;;;10.86;73.56;101237.66;1704677;83;21042;-69
2022/05/08 03:48:18;;;;;;;40.38;24.80;;;;;;;10.95;73.61;101242.08;1704382;84;21042;-69
2022/05/08 03:50:44;;;;;;;44.85;23.98;;;;;;;11.03;73.67;101236.83;1703829;82;21149;-68
2022/05/08 03:53:10;;;;;;;43.58;25.48;;;;;;;11.09;73.70;101238.88;1704673;82;21034;-69
2022/05/08 03:55:36;;;;;;;44.53;23.70;;;;;;;11.15;73.77;101245.45;1704823;83;21112;-69
2022/05/08 03:58:02;;;;;;;35.15;21.70;;;;;;;11.18;73.81;101233.98;1704400;84;21113;-69
2022/05/08 04:00:28;;;;;;;41.92;24.18;;;;;;;11.26;73.88;101240.70;1707302;82;21119;-69
2022/05/08 04:02:55;;;;;;;39.18;22.67;;;;;;;11.33;73.90;101244.43;1725550;81;21025;-69
2022/05/08 04:05:22;;;;;;;36.42;24.45;;;;;;;11.38;73.92;101239.48;1733287;80;21945;-69
2022/05/08 04:07:48;;;;;;;41.00;23.38;;;;;;;11.37;73.94;101237.80;1703046;82;21075;-69
2022/05/08 04:10:14;;;;;;;28.70;21.33;;;;;;;11.37;74.02;101244.47;1734246;82;21481;-69
2022/05/08 04:12:42;;;;;;;30.40;21.82;;;;;;;11.39;74.06;101241.17;1733482;81;21095;-69
2022/05/08 04:16:15;;;;;;;31.20;21.25;;;;;;;11.43;74.08;101247.03;1733433;81;21031;-69
2022/05/08 04:17:37;;;;;;;34.15;22.15;;;;;;;11.52;74.13;101251.44;1729397;80;21155;-69
2022/05/08 04:20:06;;;;;;;33.13;22.25;;;;;;;11.62;74.14;101250.00;1734345;82;21084;-69
2022/05/08 04:25:16;;;;;;;31.05;22.15;;;;;;;11.80;74.16;101254.84;1732483;82;21043;-69
2022/05/08 04:27:42;;;;;;;30.12;20.82;;;;;;;11.91;74.16;101254.59;1732738;81;21027;-69
2022/05/08 04:30:09;;;;;;;28.17;21.93;;;;;;;12.00;74.14;101254.47;1733083;81;21148;-69
2022/05/08 04:32:38;;;;;;;29.20;21.20;;;;;;;12.02;74.13;101251.66;1729693;81;21052;-69
2022/05/08 04:35:04;;;;;;;30.17;21.52;;;;;;;12.07;74.11;101247.98;1734284;82;21126;-69
2022/05/08 04:37:31;;;;;;;29.00;20.92;;;;;;;12.19;74.10;101252.08;1733696;82;21087;-69
2022/05/08 04:39:56;;;;;;;29.90;21.62;;;;;;;12.29;74.11;101258.14;1733861;82;20935;-69
2022/05/08 04:42:22;;;;;;;26.45;20.52;;;;;;;12.35;74.08;101253.48;1733473;82;21717;-69
2022/05/08 04:44:48;;;;;;;30.52;21.33;;;;;;;12.42;74.07;101257.69;1734182;82;21548;-68
2022/05/08 04:47:14;;;;;;;27.35;22.17;;;;;;;12.49;74.03;101258.22;1734255;81;21577;-69
2022/05/08 04:49:41;;;;;;;32.17;21.87;;;;;;;12.62;74.03;101259.63;1733420;82;21520;-69
2022/05/08 04:52:07;;;;;;;27.32;21.23;;;;;;;12.72;73.99;101266.52;1729288;82;21091;-69
2022/05/08 04:54:33;;;;;;;28.20;20.50;;;;;;;12.81;73.92;101270.87;1721350;82;21760;-69
2022/05/08 04:57:01;;;;;;;29.23;20.72;;;;;;;12.83;73.86;101281.44;1735290;82;21030;-69
2022/05/08 04:59:27;;;;;;;26.95;20.55;;;;;;;12.81;73.83;101286.09;1734344;82;21012;-69
2022/05/08 05:01:53;;;;;;;28.92;19.48;;;;;;;12.76;73.83;101289.78;1732517;82;20928;-69
2022/05/08 05:04:19;;;;;;;31.52;20.80;;;;;;;12.74;73.82;101285.91;1728759;82;21629;-69
2022/05/08 05:06:45;;;;;;;25.12;19.77;;;;;;;12.78;73.80;101297.98;1719984;83;21892;-69
2022/05/08 05:09:11;;;;;;;24.95;17.85;;;;;;;12.78;73.76;101301.15;1719949;83;21050;-69
2022/05/08 05:11:37;;;;;;;25.23;17.50;;;;;;;12.74;73.73;101303.80;1719577;82;21012;-69
2022/05/08 05:14:04;;;;;;;23.25;15.68;;;;;;;12.72;73.78;101305.81;1731901;81;21111;-69
2022/05/08 05:16:30;;;;;;;21.02;16.70;;;;;;;12.74;73.77;101306.48;1758219;81;20999;-69
2022/05/08 05:18:56;;;;;;;25.15;14.43;;;;;;;12.75;73.78;101309.50;1758010;81;20978;-69
2022/05/08 05:21:22;;;;;;;19.17;14.93;;;;;;;12.72;73.75;101313.84;1758029;81;20974;-69
2022/05/08 05:23:48;;;;;;;24.92;16.65;;;;;;;12.73;73.78;101313.70;1755824;81;20954;-69
2022/05/08 05:26:14;;;;;;;21.40;16.10;;;;;;;12.79;73.76;101312.20;1758287;81;21574;-69
2022/05/08 05:28:40;;;;;;;19.32;15.35;;;;;;;12.84;73.77;101316.59;1758227;81;21000;-69
2022/05/08 05:31:06;;;;;;;24.82;16.32;;;;;;;12.83;73.78;101320.25;1758023;81;22027;-69
2022/05/08 05:33:32;;;;;;;23.52;17.60;;;;;;;12.83;73.79;101326.95;1757285;81;21000;-69
2022/05/08 05:35:58;;;;;;;22.73;17.35;;;;;;;12.78;73.77;101331.93;1757981;81;20907;-69
2022/05/08 05:38:24;;;;;;;22.15;16.05;;;;;;;12.75;73.80;101330.42;1758206;81;20946;-69
2022/05/08 05:43:42;;;;;;;19.42;15.25;;;;;;;12.91;73.82;101326.45;1857581;77;22738;-70
2022/05/08 05:48:52;;;;;;;27.02;16.32;;;;;;;12.98;73.84;101336.86;1717949;83;21272;-70
2022/05/08 05:51:18;;;;;;;19.85;14.65;;;;;;;13.07;73.83;101336.39;1758623;81;21461;-70
2022/05/08 05:53:44;;;;;;;22.35;15.50;;;;;;;13.14;73.78;101337.45;1758826;81;20907;-70
2022/05/08 05:56:10;;;;;;;19.07;14.38;;;;;;;13.24;73.74;101340.81;1758934;81;20995;-70
2022/05/08 05:58:36;;;;;;;16.40;13.55;;;;;;;13.32;73.72;101339.50;1758921;81;21054;-70
2022/05/08 06:01:02;;;;;;;19.95;15.55;;;;;;;13.37;73.69;101339.02;1758229;80;21054;-70
2022/05/08 06:03:28;;;;;;;21.73;14.25;;;;;;;13.42;73.79;101344.20;1758249;81;20931;-70
2022/05/08 06:05:55;;;;;;;18.12;13.53;;;;;;;13.30;73.52;101329.44;1749134;80;21029;-70
2022/05/08 06:08:21;;;;;;;21.77;13.95;;;;;;;13.30;73.52;101329.44;1757362;80;21089;-70
2022/05/08 06:10:47;;;;;;;20.45;13.00;;;;;;;13.47;73.51;101351.76;1752179;80;21025;-70
2022/05/08 06:13:13;;;;;;;19.12;13.83;;;;;;;13.47;73.51;101351.76;1764976;80;21191;-69
2022/05/08 06:15:40;;;;;;;20.37;13.70;;;;;;;13.51;73.56;101344.54;1757685;80;20918;-70
2022/05/08 06:18:06;;;;;;;16.62;13.70;;;;;;;13.57;73.55;101351.59;1728700;83;20997;-69
2022/05/08 06:20:32;;;;;;;14.20;12.33;;;;;;;13.61;73.58;101355.63;1735117;80;21120;-69
2022/05/08 06:22:58;;;;;;;15.95;13.03;;;;;;;13.67;73.50;101356.29;1753727;81;21033;-70
2022/05/08 06:25:24;;;;;;;17.62;12.98;;;;;;;13.81;73.41;101365.86;1719244;81;21167;-70
2022/05/08 06:27:50;;;;;;;15.53;12.75;;;;;;;13.81;73.41;101365.86;1723433;81;21025;-70
2022/05/08 06:30:16;;;;;;;22.00;12.65;;;;;;;13.89;73.39;101369.89;1705744;84;21022;-69
2022/05/08 06:32:42;;;;;;;14.78;12.15;;;;;;;13.97;73.40;101379.75;1713521;82;20907;-70
2022/05/08 06:35:08;;;;;;;16.57;14.03;;;;;;;14.03;73.33;101378.26;1729669;81;21669;-70
2022/05/08 06:37:34;;;;;;;20.10;13.50;;;;;;;14.10;73.30;101374.73;1738696;82;22362;-70
2022/05/08 06:40:00;;;;;;;15.45;13.43;;;;;;;14.16;73.19;101378.08;1739784;81;21045;-70
2022/05/08 06:42:26;;;;;;;19.30;13.45;;;;;;;14.24;73.13;101377.23;1737159;82;21054;-70
2022/05/08 06:44:53;;;;;;;18.25;13.53;;;;;;;14.33;73.07;101378.39;1713420;82;21061;-70
2022/05/08 06:47:19;;;;;;;20.15;13.35;;;;;;;14.38;73.01;101388.16;1719985;82;21139;-69
2022/05/08 06:49:44;;;;;;;16.27;13.62;;;;;;;14.42;72.96;101387.31;1708316;82;21209;-70
2022/05/08 06:52:10;;;;;;;21.23;13.05;;;;;;;14.48;72.91;101395.52;1704830;82;21038;-70
2022/05/08 06:54:36;;;;;;;19.07;13.62;;;;;;;14.47;72.86;101393.83;1730065;82;21013;-70
2022/05/08 06:57:03;;;;;;;18.40;12.75;;;;;;;14.49;72.79;101395.83;1715681;83;20999;-70
2022/05/08 07:02:15;;;;;;;16.05;12.18;;;;;;;14.62;72.65;101396.66;1729953;83;21701;-70
2022/05/08 07:04:41;;;;;;;13.72;10.90;;;;;;;14.62;72.53;101401.18;1722602;82;20994;-70
2022/05/08 07:07:07;;;;;;;18.67;11.45;;;;;;;14.65;72.47;101395.46;1730666;82;21062;-70
2022/05/08 07:09:35;;;;;;;12.45;10.80;;;;;;;14.73;72.42;101398.13;1712734;82;21035;-70
2022/05/08 07:12:01;;;;;;;16.52;11.83;;;;;;;14.83;72.31;101398.27;1700809;84;21093;-70
2022/05/08 07:14:27;;;;;;;14.28;10.78;;;;;;;14.89;72.19;101392.70;1720452;82;21169;-70
2022/05/08 07:16:53;;;;;;;16.90;11.50;;;;;;;14.90;72.04;101394.38;1719141;82;21020;-70
2022/05/08 07:19:19;;;;;;;11.43;10.18;;;;;;;14.98;71.93;101397.05;1700891;84;20991;-70
2022/05/08 07:21:45;;;;;;;11.93;9.68;;;;;;;15.08;71.80;101404.89;1703422;82;21838;-70
2022/05/08 07:24:11;;;;;;;13.50;9.28;;;;;;;15.13;71.58;101403.88;1714487;82;21502;-70
2022/05/08 07:26:37;;;;;;;11.75;9.18;;;;;;;15.17;71.42;101408.70;1700827;84;21908;-71
2022/05/08 07:29:07;;;;;;;12.65;9.88;;;;;;;15.19;71.20;101407.19;1702624;82;21515;-70
2022/05/08 07:31:33;;;;;;;10.82;8.93;;;;;;;15.21;70.98;101408.69;1722874;82;21567;-70
2022/05/08 07:36:43;;;;;;;11.53;7.97;;;;;;;15.27;70.61;101414.69;1730399;83;21002;-70
2022/05/08 07:39:09;;;;;;;8.48;6.92;;;;;;;15.41;70.37;101412.60;1730755;82;21058;-70
2022/05/08 07:41:35;;;;;;;9.05;6.12;;;;;;;15.54;70.15;101408.55;1730290;82;21695;-70
2022/05/08 07:44:01;;;;;;;8.83;6.03;;;;;;;15.61;69.91;101403.63;1730249;82;21053;-70
2022/05/08 07:46:28;;;;;;;8.73;5.10;;;;;;;15.69;69.66;101404.90;1714342;82;21044;-71
2022/05/08 07:48:54;;;;;;;8.95;5.40;;;;;;;15.85;69.37;101399.92;1699800;84;21086;-70
2022/05/08 07:51:20;;;;;;;9.15;6.22;;;;;;;15.98;69.01;101399.64;1699625;84;21191;-70
2022/05/08 07:53:47;;;;;;;8.20;5.72;;;;;;;16.29;68.70;101404.92;1718295;82;21062;-70
2022/05/08 07:56:14;;;;;;;6.03;4.70;;;;;;;16.77;68.23;101409.02;1692698;82;21053;-70
2022/05/08 07:58:40;;;;;;;6.05;4.45;;;;;;;17.14;67.73;101405.36;1712122;82;21519;-70
2022/05/08 08:01:06;;;;;;;7.10;5.25;;;;;;;17.49;67.22;101407.24;1700762;84;21728;-71
2022/05/08 08:03:33;;;;;;;7.22;4.97;;;;;;;17.77;66.74;101407.36;1696843;82;21121;-70
2022/05/08 08:05:59;;;;;;;7.72;4.10;;;;;;;18.07;66.16;101404.54;1712788;82;21601;-70
2022/05/08 08:08:25;;;;;;;5.70;4.53;;;;;;;18.01;65.34;101403.47;1713388;82;21011;-70
2022/05/08 08:10:53;;;;;;;11.45;5.35;;;;;;;17.84;64.72;101407.42;1728775;82;21111;-71
2022/05/08 08:13:20;;;;;;;4.90;4.40;;;;;;;17.68;64.30;101403.13;1723075;82;21526;-71
2022/05/08 08:15:47;;;;;;;8.83;4.60;;;;;;;17.56;63.87;101405.16;1721590;82;21158;-70
2022/05/08 08:18:13;;;;;;;5.97;4.75;;;;;;;17.52;63.44;101410.09;1700660;84;21062;-71
2022/05/08 08:20:39;;;;;;;5.53;4.28;;;;;;;17.45;63.06;101408.64;1700978;84;21051;-71
2022/05/08 08:23:06;;;;;;;7.17;4.37;;;;;;;17.29;62.64;101416.97;1715891;82;21054;-71
2022/05/08 08:25:32;;;;;;;5.95;4.35;;;;;;;17.21;62.28;101416.22;1705668;82;21834;-70
2022/05/08 08:27:59;;;;;;;11.43;5.03;;;;;;;17.24;61.93;101413.98;1718694;82;21819;-70
2022/05/08 08:30:25;;;;;;;8.18;5.03;;;;;;;17.20;61.55;101416.77;1719593;82;21054;-70
2022/05/08 08:32:51;;;;;;;7.78;4.72;;;;;;;17.20;61.32;101423.50;1719244;82;21002;-70
2022/05/08 08:35:17;;;;;;;6.45;5.33;;;;;;;17.28;61.15;101425.23;1713345;83;21043;-70
2022/05/08 08:37:43;;;;;;;5.80;4.53;;;;;;;17.31;60.98;101422.99;1730223;82;21514;-70
2022/05/08 08:40:11;;;;;;;6.53;4.35;;;;;;;17.42;60.84;101428.41;1723527;82;21639;-71
2022/05/08 08:42:41;;;;;;;6.17;3.50;;;;;;;17.39;60.49;101428.29;1725078;81;21093;-71
2022/05/08 08:48:00;;;;;;;4.05;2.87;;;;;;;17.34;59.89;101433.94;1717428;82;21545;-71
2022/05/08 08:50:27;;;;;;;4.17;3.05;;;;;;;17.42;59.48;101436.00;1734749;82;21089;-71
2022/05/08 08:52:57;;;;;;;6.08;3.10;;;;;;;17.36;58.96;101443.50;1760913;81;21824;-71
2022/05/08 08:55:23;;;;;;;5.15;2.67;;;;;;;17.51;58.68;101437.24;1756576;80;20995;-71
2022/05/08 08:57:52;;;;;;;4.22;3.08;;;;;;;17.66;58.44;101438.08;1757246;80;21015;-71
2022/05/08 09:00:18;;;;;;;3.85;2.98;;;;;;;17.86;58.16;101439.12;1757670;81;21078;-71
2022/05/08 09:02:47;;;;;;;4.22;3.00;;;;;;;18.12;57.85;101439.91;1747413;80;21525;-71
2022/05/08 09:05:13;;;;;;;5.22;3.12;;;;;;;18.25;57.48;101438.16;1747506;81;21359;-71
2022/05/08 09:07:42;;;;;;;3.70;2.85;;;;;;;18.38;57.07;101446.36;1727622;83;21006;-71
2022/05/08 09:10:21;;;;;;;4.97;3.12;;;;;;;18.44;56.64;101441.52;1742042;80;21097;-71
2022/05/08 09:12:55;;;;;;;6.30;3.33;;;;;;;18.46;56.29;101438.13;1757131;81;20991;-71
2022/05/08 09:15:25;;;;;;;4.62;3.40;;;;;;;18.64;56.14;101437.67;1724022;82;21010;-72
2022/05/08 09:17:55;;;;;;;3.67;2.92;;;;;;;18.88;55.67;101437.71;1728087;82;21761;-71
2022/05/08 09:20:39;;;;;;;7.20;3.02;;;;;;;19.08;55.30;101440.52;1731382;81;20991;-71
2022/05/08 09:23:17;;;;;;;5.70;3.10;;;;;;;19.25;54.98;101436.44;1727749;83;21133;-71
2022/05/08 09:25:54;;;;;;;5.92;3.27;;;;;;;19.17;54.44;101432.06;1727828;81;21471;-71
2022/05/08 09:28:23;;;;;;;4.22;3.05;;;;;;;19.17;54.31;101438.82;1736943;81;21093;-72
2022/05/08 09:30:55;;;;;;;3.67;2.98;;;;;;;19.15;54.12;101439.52;1757452;81;26476;-71
2022/05/08 09:33:29;;;;;;;4.55;2.67;;;;;;;19.15;53.88;101443.58;1758213;81;20998;-71
2022/05/08 09:35:55;;;;;;;3.22;2.77;;;;;;;19.24;53.85;101446.96;1756224;81;21015;-71
2022/05/08 09:38:21;;;;;;;6.62;3.02;;;;;;;19.51;53.64;101442.52;1737494;81;20983;-71
2022/05/08 09:41:05;;;;;;;4.30;3.17;;;;;;;19.72;53.14;101445.92;1740671;81;21050;-71
2022/05/08 09:43:34;;;;;;;4.70;3.08;;;;;;;19.70;52.71;101445.27;1756262;80;21145;-71
2022/05/08 09:46:00;;;;;;;4.45;3.45;;;;;;;19.68;52.50;101443.81;1757383;81;21565;-71
2022/05/08 09:48:27;;;;;;;6.20;3.30;;;;;;;19.75;52.34;101446.86;1748825;81;21058;-71
2022/05/08 09:50:58;;;;;;;3.90;3.30;;;;;;;19.76;52.14;101440.94;1751675;81;21064;-71
2022/05/08 09:53:25;;;;;;;4.58;3.08;;;;;;;19.79;52.23;101451.35;1736964;81;21090;-72
2022/05/08 09:55:55;;;;;;;5.35;3.22;;;;;;;20.06;52.19;101444.94;1738545;80;21534;-71
2022/05/08 09:58:21;;;;;;;3.27;2.98;;;;;;;20.27;52.05;101441.20;1725529;83;21023;-71
2022/05/08 10:00:49;;;;;;;5.42;2.83;;;;;;;20.39;51.87;101440.42;1713177;83;21513;-72
2022/05/08 10:03:15;;;;;;;3.65;3.05;;;;;;;20.48;51.73;101441.02;1713867;83;21034;-72
2022/05/08 10:05:45;;;;;;;6.60;3.47;;;;;;;20.54;51.62;101436.66;1728101;82;21073;-71
2022/05/08 10:08:14;;;;;;;6.72;4.03;;;;;;;20.67;51.58;101437.99;1730172;82;21081;-71
2022/05/08 10:13:54;;;;;;;4.25;3.75;;;;;;;20.39;51.22;101432.29;1730532;82;21067;-71
2022/05/08 10:16:56;;;;;;;7.05;3.42;;;;;;;20.10;51.21;101429.11;1718281;82;21540;-71
2022/05/08 10:19:30;;;;;;;5.62;3.30;;;;;;;20.31;51.31;101431.14;1729694;83;21542;-71
2022/05/08 10:22:05;;;;;;;6.28;4.42;;;;;;;20.46;51.19;101430.09;1730605;82;21507;-71
2022/05/08 10:24:42;;;;;;;6.42;3.65;;;;;;;20.27;50.94;101431.23;1730541;82;21018;-71
2022/05/08 10:27:26;;;;;;;7.58;3.67;;;;;;;20.10;51.05;101429.95;1730713;83;21050;-71
2022/05/08 10:29:58;;;;;;;5.72;3.52;;;;;;;19.99;50.92;101427.01;1730556;82;21066;-71
2022/05/08 10:32:35;;;;;;;4.95;3.50;;;;;;;19.96;50.88;101428.27;1730656;82;21314;-71
2022/05/08 10:35:22;;;;;;;4.22;3.70;;;;;;;19.96;50.85;101433.67;1730812;82;21079;-71
2022/05/08 10:38:08;;;;;;;5.20;3.30;;;;;;;19.97;50.81;101435.35;1729420;83;20991;-71
2022/05/08 10:40:35;;;;;;;5.67;3.25;;;;;;;20.05;50.75;101427.05;1730698;82;21558;-71
2022/05/08 10:43:25;;;;;;;4.15;3.47;;;;;;;20.12;50.65;101425.17;1731053;82;21085;-71
2022/05/08 10:45:47;;;;;;;6.17;3.77;;;;;;;20.10;50.53;101430.46;1738531;82;21053;-71
2022/05/08 10:48:19;;;;;;;6.37;2.90;;;;;;;20.18;50.45;101427.05;1760962;81;22108;-71
2022/05/08 10:50:54;;;;;;;4.33;3.22;;;;;;;20.31;50.36;101427.07;1734201;82;21030;-71
2022/05/08 10:53:26;;;;;;;5.28;3.12;;;;;;;20.35;50.27;101427.48;1761330;81;21033;-72
2022/05/08 10:55:55;;;;;;;4.50;3.40;;;;;;;20.46;50.24;101421.45;1760915;81;21056;-71
2022/05/08 10:58:21;;;;;;;4.17;3.12;;;;;;;20.69;50.12;101419.66;1758587;81;21026;-72
2022/05/08 11:00:47;;;;;;;6.42;2.70;;;;;;;20.92;49.91;101428.15;1759062;81;21175;-71
2022/05/08 11:03:21;;;;;;;3.83;3.25;;;;;;;20.99;49.54;101424.06;1734167;82;20994;-71
2022/05/08 11:05:47;;;;;;;8.48;3.42;;;;;;;20.80;49.18;101423.89;1761450;81;21021;-72
2022/05/08 11:08:21;;;;;;;4.85;2.98;;;;;;;20.49;48.95;101425.60;1761352;81;20870;-71
2022/05/08 11:10:49;;;;;;;4.50;3.08;;;;;;;20.44;49.01;101428.41;1758985;81;22102;-72
2022/05/08 11:13:18;;;;;;;3.47;2.70;;;;;;;20.42;48.95;101430.52;1683981;82;21901;-71
2022/05/08 11:15:47;;;;;;;4.47;2.65;;;;;;;20.29;48.84;101423.75;1760968;81;21536;-71
2022/05/08 11:18:19;;;;;;;3.45;2.65;;;;;;;20.16;48.82;101422.34;1761420;81;20978;-71
2022/05/08 11:20:48;;;;;;;3.58;2.55;;;;;;;20.06;48.79;101425.98;1759000;80;20981;-71
2022/05/08 11:23:16;;;;;;;3.73;2.73;;;;;;;19.93;48.88;101417.84;1734516;82;21041;-72
2022/05/08 11:25:49;;;;;;;3.98;2.52;;;;;;;19.80;48.91;101417.83;1761086;81;21160;-71
2022/05/08 11:28:17;;;;;;;6.28;2.95;;;;;;;19.81;49.05;101412.70;1730714;81;21006;-71
2022/05/08 11:30:46;;;;;;;6.40;2.30;;;;;;;19.95;49.04;101411.69;1751889;81;21951;-71
2022/05/08 11:36:05;;;;;;;3.98;2.80;;;;;;;19.85;48.89;101411.27;1728694;82;21030;-71
2022/05/08 11:38:55;;;;;;;4.97;2.77;;;;;;;19.78;48.89;101414.48;1730576;81;21513;-71
2022/05/08 11:41:29;;;;;;;3.92;2.70;;;;;;;19.80;48.90;101410.55;1724518;82;21085;-71
2022/05/08 11:43:56;;;;;;;2.40;2.10;;;;;;;19.83;48.81;101418.25;1713428;82;21033;-71